Time;durP1;ratioP1;P1;durP2;ratioP2;P2;SDS_P1;SDS_P2;PMS_P1;PMS_P2;Temp;Humidity;BMP_temperature;BMP_pressure;BME280_temperature;BME280_humidity;BME280_pressure;Samples;Min_cycle;Max_cycle;Signal;HPM_P1;HPM_P2
2022/06/30 05:35:49;;;;;;;10.52;9.48;;;;;;;;;;7385678;19;20184;-80
2022/06/30 05:38:15;;;;;;;11.85;9.27;;;;;;;;;;7381063;19;20160;-77
2022/06/30 05:40:41;;;;;;;10.98;9.52;;;;;;;;;;7389097;19;20159;-80
2022/06/30 05:43:08;;;;;;;12.02;9.10;;;;;;;;;;7388373;19;20208;-78
2022/06/30 05:45:33;;;;;;;12.85;9.27;;;;;;;;;;7401372;19;20149;-82
2022/06/30 05:47:58;;;;;;;11.05;7.88;;;;;;;;;;7417566;19;20128;-81
2022/06/30 05:50:23;;;;;;;12.77;8.90;;;;;;;;;;7425003;19;20154;-82
2022/06/30 05:52:52;;;;;;;10.25;8.45;;;;;;;;;;7421447;19;20144;-81
2022/06/30 05:55:18;;;;;;;14.35;9.23;;;;;;;;;;7414337;19;20176;-76
2022/06/30 05:57:51;;;;;;;10.88;9.23;;;;;;;;;;7387512;19;20509;-76
2022/06/30 06:00:18;;;;;;;15.75;10.73;;;;;;;;;;7383085;19;20148;-76
2022/06/30 06:02:43;;;;;;;13.98;9.38;;;;;;;;;;7388349;19;20141;-77
2022/06/30 06:05:09;;;;;;;13.52;10.05;;;;;;;;;;7381043;19;20547;-76
2022/06/30 06:07:34;;;;;;;14.57;10.35;;;;;;;;;;7383835;19;20567;-77
2022/06/30 06:09:59;;;;;;;16.75;9.48;;;;;;;;;;7383204;19;20212;-77
2022/06/30 06:12:25;;;;;;;11.93;9.68;;;;;;;;;;7383321;19;20136;-76
2022/06/30 06:14:50;;;;;;;14.93;10.45;;;;;;;;;;7387996;19;20125;-81
2022/06/30 06:17:15;;;;;;;14.48;10.27;;;;;;;;;;7376596;19;20169;-76
2022/06/30 06:19:41;;;;;;;15.23;9.70;;;;;;;;;;7377920;19;20137;-77
2022/06/30 06:22:06;;;;;;;15.43;10.13;;;;;;;;;;7378489;19;20577;-77
2022/06/30 06:24:32;;;;;;;10.38;8.15;;;;;;;;;;7382079;19;20518;-75
2022/06/30 06:26:57;;;;;;;12.18;8.52;;;;;;;;;;7390881;19;20475;-76
2022/06/30 06:29:22;;;;;;;10.95;9.15;;;;;;;;;;7389491;19;20129;-76
2022/06/30 06:31:48;;;;;;;11.82;8.90;;;;;;;;;;7387088;19;20209;-76
2022/06/30 06:34:13;;;;;;;12.40;9.38;;;;;;;;;;7385959;19;20117;-77
2022/06/30 06:36:39;;;;;;;10.93;8.63;;;;;;;;;;7386315;19;20140;-76
2022/06/30 06:39:04;;;;;;;11.13;8.68;;;;;;;;;;7387269;19;20147;-76
2022/06/30 06:41:30;;;;;;;15.48;10.90;;;;;;;;;;7386498;19;20216;-78
2022/06/30 06:43:55;;;;;;;11.15;9.63;;;;;;;;;;7384771;19;20123;-80
2022/06/30 06:46:26;;;;;;;11.45;8.40;;;;;;;;;;7386992;19;20159;-76
2022/06/30 06:48:52;;;;;;;11.98;8.10;;;;;;;;;;7387642;19;20620;-76
2022/06/30 06:51:18;;;;;;;10.80;7.47;;;;;;;;;;7383919;19;20163;-78
2022/06/30 06:53:43;;;;;;;11.07;8.02;;;;;;;;;;7384474;19;20212;-77
2022/06/30 06:56:08;;;;;;;10.82;8.38;;;;;;;;;;7385629;19;20583;-77
2022/06/30 06:58:34;;;;;;;9.10;7.18;;;;;;;;;;7384841;19;20160;-78
2022/06/30 07:01:00;;;;;;;10.55;7.43;;;;;;;;;;7383089;19;20746;-76
2022/06/30 07:03:25;;;;;;;11.55;7.70;;;;;;;;;;7384424;19;20125;-79
2022/06/30 07:05:51;;;;;;;8.55;6.72;;;;;;;;;;7386610;19;20529;-77
2022/06/30 07:08:16;;;;;;;7.88;7.07;;;;;;;;;;7386443;19;20164;-78
2022/06/30 07:10:41;;;;;;;9.48;7.05;;;;;;;;;;7384521;19;20166;-76
2022/06/30 07:13:07;;;;;;;7.35;6.30;;;;;;;;;;7380194;19;20137;-76
2022/06/30 07:15:32;;;;;;;8.10;5.70;;;;;;;;;;7378052;19;20494;-76
2022/06/30 07:17:58;;;;;;;9.25;6.65;;;;;;;;;;7376048;19;20140;-76
2022/06/30 07:20:24;;;;;;;9.95;7.03;;;;;;;;;;7372226;19;20141;-76
2022/06/30 07:22:50;;;;;;;8.68;6.90;;;;;;;;;;7380089;19;20228;-76
2022/06/30 07:25:15;;;;;;;8.25;6.13;;;;;;;;;;7383320;19;20612;-78
2022/06/30 07:27:40;;;;;;;7.72;5.82;;;;;;;;;;7381861;19;20527;-76
2022/06/30 07:30:06;;;;;;;7.80;6.18;;;;;;;;;;7385038;19;20518;-76
2022/06/30 07:32:32;;;;;;;7.20;6.50;;;;;;;;;;7375973;19;20159;-76
2022/06/30 07:34:57;;;;;;;7.70;6.93;;;;;;;;;;7381823;19;20480;-80
2022/06/30 07:37:22;;;;;;;10.52;6.50;;;;;;;;;;7382377;19;20141;-76
2022/06/30 07:39:48;;;;;;;7.10;6.43;;;;;;;;;;7370801;19;20121;-77
2022/06/30 07:42:13;;;;;;;8.70;6.90;;;;;;;;;;7382955;19;20121;-77
2022/06/30 07:44:38;;;;;;;8.23;6.78;;;;;;;;;;7376567;19;20145;-77
2022/06/30 07:47:04;;;;;;;15.20;6.20;;;;;;;;;;7379415;19;20138;-77
2022/06/30 07:49:29;;;;;;;7.57;6.03;;;;;;;;;;7377176;19;20125;-79
2022/06/30 07:51:55;;;;;;;8.52;6.20;;;;;;;;;;7382209;19;20153;-77
2022/06/30 07:54:20;;;;;;;6.03;5.53;;;;;;;;;;7384135;19;20136;-78
2022/06/30 07:56:46;;;;;;;32.13;28.58;;;;;;;;;;7374769;19;20563;-77
2022/06/30 07:59:11;;;;;;;10.23;7.03;;;;;;;;;;7381606;19;20119;-79
2022/06/30 08:01:37;;;;;;;8.82;6.45;;;;;;;;;;7374548;19;20505;-77
2022/06/30 08:04:02;;;;;;;6.53;5.88;;;;;;;;;;7383241;19;20128;-77
2022/06/30 08:06:28;;;;;;;6.45;5.82;;;;;;;;;;7384079;19;20753;-76
2022/06/30 08:08:53;;;;;;;9.43;5.60;;;;;;;;;;7383671;19;20463;-79
2022/06/30 08:11:18;;;;;;;9.15;6.18;;;;;;;;;;7380296;19;20184;-79
2022/06/30 08:13:44;;;;;;;8.57;6.35;;;;;;;;;;7382783;19;20536;-76
2022/06/30 08:16:10;;;;;;;9.93;6.57;;;;;;;;;;7385542;19;20542;-77
2022/06/30 08:18:35;;;;;;;6.80;5.63;;;;;;;;;;7380065;19;20140;-78
2022/06/30 08:21:01;;;;;;;5.93;5.43;;;;;;;;;;7376192;19;20215;-77
2022/06/30 08:23:26;;;;;;;8.70;5.35;;;;;;;;;;7378310;19;20449;-76
2022/06/30 08:25:51;;;;;;;6.43;5.85;;;;;;;;;;7380976;19;20152;-77
2022/06/30 08:28:17;;;;;;;6.97;5.80;;;;;;;;;;7385659;19;20125;-77
2022/06/30 08:30:42;;;;;;;6.85;6.18;;;;;;;;;;7387901;19;20149;-78
2022/06/30 08:33:08;;;;;;;8.23;5.93;;;;;;;;;;7381474;19;20125;-78
2022/06/30 08:35:33;;;;;;;9.70;5.78;;;;;;;;;;7383108;19;20133;-77
2022/06/30 08:37:59;;;;;;;7.40;5.82;;;;;;;;;;7377246;19;20129;-77
2022/06/30 08:43:09;;;;;;;6.03;5.43;;;;;;;;;;7382972;19;20631;-78
2022/06/30 08:45:35;;;;;;;7.03;4.60;;;;;;;;;;7382162;19;20148;-77
2022/06/30 08:48:00;;;;;;;5.63;5.00;;;;;;;;;;7377639;19;20610;-80
2022/06/30 08:50:25;;;;;;;5.65;4.70;;;;;;;;;;7367893;19;20520;-81
2022/06/30 08:52:53;;;;;;;7.10;4.88;;;;;;;;;;7372208;19;20155;-77
2022/06/30 08:55:21;;;;;;;6.53;4.50;;;;;;;;;;7371978;19;20225;-78
2022/06/30 08:57:47;;;;;;;7.95;4.60;;;;;;;;;;7383450;19;20186;-78
2022/06/30 09:00:15;;;;;;;6.43;4.20;;;;;;;;;;7381000;19;20145;-78
2022/06/30 09:02:41;;;;;;;5.40;3.95;;;;;;;;;;7376740;19;20148;-80
2022/06/30 09:05:07;;;;;;;7.10;4.10;;;;;;;;;;7380799;19;20153;-77
2022/06/30 09:07:34;;;;;;;6.13;4.68;;;;;;;;;;7369381;19;20133;-77
2022/06/30 09:09:59;;;;;;;4.65;4.18;;;;;;;;;;7372519;19;20150;-80
2022/06/30 09:12:26;;;;;;;6.97;4.47;;;;;;;;;;7375043;19;20122;-80
2022/06/30 09:14:52;;;;;;;4.82;3.97;;;;;;;;;;7368513;19;20492;-77
2022/06/30 09:17:19;;;;;;;8.57;4.65;;;;;;;;;;7374794;19;20148;-77
2022/06/30 09:19:57;;;;;;;5.05;4.53;;;;;;;;;;7377882;19;20618;-77
2022/06/30 09:22:24;;;;;;;4.22;3.83;;;;;;;;;;7375989;19;20586;-77
2022/06/30 09:25:03;;;;;;;5.57;4.40;;;;;;;;;;7379022;19;20113;-79
2022/06/30 09:27:31;;;;;;;5.05;4.30;;;;;;;;;;7376587;19;20153;-78
2022/06/30 09:30:21;;;;;;;7.78;4.43;;;;;;;;;;7382040;19;20159;-77
2022/06/30 09:32:49;;;;;;;4.75;4.25;;;;;;;;;;7376053;19;20229;-77
2022/06/30 09:35:16;;;;;;;9.02;4.93;;;;;;;;;;7375589;19;20457;-78
2022/06/30 09:37:41;;;;;;;6.53;4.45;;;;;;;;;;7377385;19;20152;-77
2022/06/30 09:40:08;;;;;;;5.10;4.20;;;;;;;;;;7382518;19;20523;-78
2022/06/30 09:42:39;;;;;;;5.85;4.78;;;;;;;;;;7360199;19;20121;-79
2022/06/30 09:45:07;;;;;;;7.28;3.92;;;;;;;;;;7388647;19;20133;-77
2022/06/30 09:47:32;;;;;;;9.52;5.03;;;;;;;;;;7386832;19;20149;-79
2022/06/30 09:50:03;;;;;;;6.25;4.78;;;;;;;;;;7387444;19;20160;-78
2022/06/30 09:52:28;;;;;;;6.32;4.43;;;;;;;;;;7390425;19;20153;-80
2022/06/30 09:55:08;;;;;;;8.90;4.72;;;;;;;;;;7389223;19;20128;-79
2022/06/30 09:57:44;;;;;;;6.25;4.35;;;;;;;;;;7373431;19;20128;-79
2022/06/30 10:00:15;;;;;;;5.93;4.38;;;;;;;;;;7380900;19;20235;-81
2022/06/30 10:02:49;;;;;;;5.32;4.40;;;;;;;;;;7388334;19;20147;-79
2022/06/30 10:05:19;;;;;;;6.40;4.60;;;;;;;;;;7389155;19;20152;-78
2022/06/30 10:07:45;;;;;;;8.40;5.03;;;;;;;;;;7386023;19;20128;-81
2022/06/30 10:10:13;;;;;;;6.40;4.65;;;;;;;;;;7384459;19;20149;-79
2022/06/30 10:12:48;;;;;;;9.50;4.78;;;;;;;;;;7385410;19;20140;-77
2022/06/30 10:15:15;;;;;;;6.45;4.47;;;;;;;;;;7386216;19;20544;-80
2022/06/30 10:17:44;;;;;;;5.57;4.85;;;;;;;;;;7389934;19;20642;-80
2022/06/30 10:20:10;;;;;;;7.95;4.72;;;;;;;;;;7385294;19;20237;-82
2022/06/30 10:22:39;;;;;;;7.80;5.70;;;;;;;;;;7386194;19;20145;-77
2022/06/30 10:25:05;;;;;;;6.38;4.82;;;;;;;;;;7388220;19;20137;-80
2022/06/30 10:27:30;;;;;;;5.45;4.97;;;;;;;;;;7389469;19;20138;-82
2022/06/30 10:29:58;;;;;;;6.25;4.82;;;;;;;;;;7388064;19;20160;-78
2022/06/30 10:32:29;;;;;;;7.13;4.80;;;;;;;;;;7386037;19;20486;-78
2022/06/30 10:35:07;;;;;;;5.00;4.50;;;;;;;;;;7388525;19;20125;-78
2022/06/30 10:37:38;;;;;;;7.43;5.05;;;;;;;;;;7388073;19;20551;-82
2022/06/30 10:40:20;;;;;;;5.40;4.90;;;;;;;;;;7387936;19;20621;-78
2022/06/30 10:42:47;;;;;;;5.95;5.03;;;;;;;;;;7372196;19;20185;-80
2022/06/30 10:45:30;;;;;;;5.50;5.00;;;;;;;;;;7386653;19;21127;-81
2022/06/30 10:47:57;;;;;;;7.82;5.20;;;;;;;;;;7400286;19;20149;-82
2022/06/30 10:50:36;;;;;;;12.90;5.15;;;;;;;;;;7395656;19;20159;-81
2022/06/30 10:53:07;;;;;;;5.10;4.45;;;;;;;;;;7386916;19;20192;-79
2022/06/30 10:55:50;;;;;;;8.43;5.05;;;;;;;;;;7376723;19;20249;-79
2022/06/30 10:58:16;;;;;;;6.78;4.25;;;;;;;;;;7387535;19;20216;-79
2022/06/30 11:00:41;;;;;;;6.80;4.50;;;;;;;;;;7386849;19;20174;-80
2022/06/30 11:03:07;;;;;;;5.30;4.43;;;;;;;;;;7395527;19;20619;-80
2022/06/30 11:05:33;;;;;;;6.60;4.93;;;;;;;;;;7389592;19;20591;-81
2022/06/30 11:08:36;;;;;;;8.93;7.57;;;;;;;;;;7389910;19;20153;-79
2022/06/30 11:11:20;;;;;;;5.75;5.18;;;;;;;;;;7390218;19;20156;-81
2022/06/30 11:13:46;;;;;;;5.15;4.65;;;;;;;;;;7384717;19;20204;-79
2022/06/30 11:16:17;;;;;;;5.25;4.28;;;;;;;;;;7390271;19;20521;-79
2022/06/30 11:18:42;;;;;;;5.25;4.13;;;;;;;;;;7383173;19;20145;-80
2022/06/30 11:21:08;;;;;;;7.30;4.28;;;;;;;;;;7379117;19;20148;-79
2022/06/30 11:23:41;;;;;;;6.68;4.25;;;;;;;;;;7387271;19;20183;-78
2022/06/30 11:28:52;;;;;;;5.03;4.38;;;;;;;;;;7384093;19;20131;-79
2022/06/30 11:31:29;;;;;;;5.43;4.80;;;;;;;;;;7386654;19;20153;-79
2022/06/30 11:33:57;;;;;;;6.65;5.03;;;;;;;;;;7386155;19;20676;-78
2022/06/30 11:36:23;;;;;;;5.22;4.80;;;;;;;;;;7385487;19;20133;-80
2022/06/30 11:39:14;;;;;;;5.97;4.85;;;;;;;;;;7386197;19;20135;-79
2022/06/30 11:44:24;;;;;;;5.53;4.97;;;;;;;;;;7384703;19;20129;-77
2022/06/30 11:46:59;;;;;;;6.13;5.40;;;;;;;;;;7385077;19;20155;-79
2022/06/30 11:49:45;;;;;;;7.00;6.20;;;;;;;;;;7384550;19;20171;-78
2022/06/30 11:52:15;;;;;;;6.57;5.55;;;;;;;;;;7379309;19;20184;-80
2022/06/30 11:54:43;;;;;;;6.60;5.88;;;;;;;;;;7415386;19;20161;-81
2022/06/30 11:57:08;;;;;;;5.90;5.30;;;;;;;;;;7412436;19;20113;-79
2022/06/30 11:59:34;;;;;;;6.75;6.00;;;;;;;;;;7405757;19;20129;-80
2022/06/30 12:02:00;;;;;;;7.10;5.28;;;;;;;;;;7418875;19;20189;-81
2022/06/30 12:04:26;;;;;;;7.25;5.70;;;;;;;;;;7386607;19;20154;-78
2022/06/30 12:06:51;;;;;;;6.72;6.13;;;;;;;;;;7375921;19;20124;-78
2022/06/30 12:09:17;;;;;;;6.70;5.53;;;;;;;;;;7387917;19;20176;-79
2022/06/30 12:11:45;;;;;;;6.60;5.60;;;;;;;;;;7386148;19;20642;-79
2022/06/30 12:14:10;;;;;;;6.20;5.50;;;;;;;;;;7383802;19;20146;-80
2022/06/30 12:16:35;;;;;;;8.88;6.35;;;;;;;;;;7386560;19;20141;-79
2022/06/30 12:19:01;;;;;;;6.85;5.93;;;;;;;;;;7378965;19;20138;-76
2022/06/30 12:21:27;;;;;;;6.93;5.75;;;;;;;;;;7381813;19;20152;-77
2022/06/30 12:23:53;;;;;;;6.68;5.65;;;;;;;;;;7383268;19;20137;-78
2022/06/30 12:26:18;;;;;;;6.93;5.80;;;;;;;;;;7376429;19;20160;-77
2022/06/30 12:28:45;;;;;;;7.60;5.43;;;;;;;;;;7373825;19;20232;-77
2022/06/30 12:31:11;;;;;;;8.68;5.45;;;;;;;;;;7385161;19;20159;-77
2022/06/30 12:33:38;;;;;;;5.72;5.20;;;;;;;;;;7384504;19;20139;-81
2022/06/30 12:36:04;;;;;;;6.57;5.30;;;;;;;;;;7383189;19;20508;-81
2022/06/30 12:38:30;;;;;;;7.88;5.88;;;;;;;;;;7391452;19;20156;-77
2022/06/30 12:40:56;;;;;;;7.03;6.00;;;;;;;;;;7387940;19;20200;-80
2022/06/30 12:43:21;;;;;;;8.50;6.15;;;;;;;;;;7393445;19;20142;-77
2022/06/30 12:46:00;;;;;;;8.63;6.85;;;;;;;;;;7383054;19;20129;-77
2022/06/30 12:48:51;;;;;;;10.60;6.72;;;;;;;;;;7379414;19;20140;-77
2022/06/30 12:51:28;;;;;;;6.22;5.63;;;;;;;;;;7381219;19;20160;-78
2022/06/30 12:54:08;;;;;;;9.23;6.20;;;;;;;;;;7384217;19;20152;-77
2022/06/30 12:56:34;;;;;;;5.88;5.38;;;;;;;;;;7382022;19;20261;-77
2022/06/30 12:59:05;;;;;;;6.78;6.00;;;;;;;;;;7380956;19;20176;-78
2022/06/30 13:01:37;;;;;;;8.38;5.63;;;;;;;;;;7375291;19;20184;-77
2022/06/30 13:04:06;;;;;;;9.80;6.35;;;;;;;;;;7380104;19;20129;-79
2022/06/30 13:06:34;;;;;;;7.90;5.97;;;;;;;;;;7368334;19;20137;-78
2022/06/30 13:09:05;;;;;;;6.32;5.68;;;;;;;;;;7382113;19;20140;-78
2022/06/30 13:11:31;;;;;;;9.95;6.35;;;;;;;;;;7380947;19;20240;-79
2022/06/30 13:13:57;;;;;;;9.50;5.95;;;;;;;;;;7382882;19;20170;-79
2022/06/30 13:16:24;;;;;;;7.20;5.57;;;;;;;;;;7391108;19;20121;-79
2022/06/30 13:18:49;;;;;;;8.43;5.38;;;;;;;;;;7393316;19;20490;-80
2022/06/30 13:21:16;;;;;;;7.45;5.65;;;;;;;;;;7395125;19;20145;-79
2022/06/30 13:23:42;;;;;;;8.52;5.63;;;;;;;;;;7396595;19;20886;-79
2022/06/30 13:26:07;;;;;;;7.57;5.13;;;;;;;;;;7383016;19;20117;-79
2022/06/30 13:28:32;;;;;;;7.97;5.47;;;;;;;;;;7389356;19;20121;-78
2022/06/30 13:30:58;;;;;;;5.97;5.32;;;;;;;;;;7383424;19;20203;-79
2022/06/30 13:33:23;;;;;;;5.88;5.30;;;;;;;;;;7389659;19;20128;-79
2022/06/30 13:35:48;;;;;;;5.57;4.95;;;;;;;;;;7391347;19;20149;-80
2022/06/30 13:38:14;;;;;;;5.35;4.20;;;;;;;;;;7385011;19;20432;-79
2022/06/30 13:40:40;;;;;;;7.10;4.43;;;;;;;;;;7388688;19;20582;-79
2022/06/30 13:43:06;;;;;;;12.10;5.47;;;;;;;;;;7390790;19;20164;-80
2022/06/30 13:45:31;;;;;;;7.20;5.35;;;;;;;;;;7382799;19;20517;-79
2022/06/30 13:47:56;;;;;;;6.30;4.60;;;;;;;;;;7388972;19;20125;-79
2022/06/30 13:50:22;;;;;;;5.88;4.72;;;;;;;;;;7386267;19;20593;-80
2022/06/30 13:52:47;;;;;;;5.55;4.65;;;;;;;;;;7387122;19;20125;-80
2022/06/30 13:55:12;;;;;;;6.50;4.30;;;;;;;;;;7387068;19;20133;-80
2022/06/30 13:57:38;;;;;;;5.22;4.35;;;;;;;;;;7388368;19;20133;-80
2022/06/30 14:00:04;;;;;;;7.93;4.90;;;;;;;;;;7388154;19;20164;-79
2022/06/30 14:02:30;;;;;;;4.88;4.18;;;;;;;;;;7389903;19;20160;-79
2022/06/30 14:04:56;;;;;;;6.57;4.70;;;;;;;;;;7390511;19;20144;-80
2022/06/30 14:07:21;;;;;;;5.00;4.50;;;;;;;;;;7390136;19;20469;-79
2022/06/30 14:09:46;;;;;;;5.38;4.10;;;;;;;;;;7389887;19;20140;-80
2022/06/30 14:12:13;;;;;;;7.07;4.35;;;;;;;;;;7382938;19;20542;-77
2022/06/30 14:14:38;;;;;;;5.15;4.10;;;;;;;;;;7387760;19;20136;-78
2022/06/30 14:17:04;;;;;;;6.32;3.70;;;;;;;;;;7386076;19;20125;-77
2022/06/30 14:19:29;;;;;;;5.68;4.30;;;;;;;;;;7388768;19;20149;-80
2022/06/30 14:21:56;;;;;;;4.13;3.42;;;;;;;;;;7385014;19;20954;-78
2022/06/30 14:24:21;;;;;;;4.75;3.75;;;;;;;;;;7390671;19;20164;-79
2022/06/30 14:26:47;;;;;;;6.75;3.88;;;;;;;;;;7384572;19;20497;-79
2022/06/30 14:29:13;;;;;;;5.32;3.67;;;;;;;;;;7386904;19;20132;-79
2022/06/30 14:31:38;;;;;;;4.25;3.80;;;;;;;;;;7382937;19;20682;-79
2022/06/30 14:34:04;;;;;;;4.43;3.55;;;;;;;;;;7385296;19;20182;-79
2022/06/30 14:36:29;;;;;;;3.72;3.42;;;;;;;;;;7385980;19;20154;-79
2022/06/30 14:38:55;;;;;;;3.60;3.30;;;;;;;;;;7387627;19;20511;-79
2022/06/30 14:44:04;;;;;;;5.88;3.20;;;;;;;;;;7387915;19;20577;-79
2022/06/30 14:46:29;;;;;;;3.72;3.40;;;;;;;;;;7389163;19;20512;-80
2022/06/30 14:48:55;;;;;;;5.18;3.10;;;;;;;;;;7389310;19;20139;-79
2022/06/30 14:51:20;;;;;;;3.30;3.05;;;;;;;;;;7379698;19;20152;-80
2022/06/30 14:53:45;;;;;;;3.92;3.22;;;;;;;;;;7385866;19;20128;-79
2022/06/30 14:56:11;;;;;;;3.42;3.10;;;;;;;;;;7387114;19;20554;-79
2022/06/30 14:58:36;;;;;;;4.18;3.83;;;;;;;;;;7387402;19;20155;-79
2022/06/30 15:01:01;;;;;;;4.20;3.55;;;;;;;;;;7387698;19;20140;-79
2022/06/30 15:03:36;;;;;;;3.75;3.47;;;;;;;;;;7390345;19;20134;-79
2022/06/30 15:06:05;;;;;;;4.72;3.55;;;;;;;;;;7387069;19;20156;-79
2022/06/30 15:08:30;;;;;;;5.72;4.10;;;;;;;;;;7388364;19;20171;-79
2022/06/30 15:10:55;;;;;;;3.22;3.00;;;;;;;;;;7386255;19;20149;-80
2022/06/30 15:13:21;;;;;;;5.30;3.65;;;;;;;;;;7388507;19;20453;-79
2022/06/30 15:15:47;;;;;;;3.90;3.50;;;;;;;;;;7389301;19;20121;-79
2022/06/30 15:18:12;;;;;;;5.22;3.67;;;;;;;;;;7387860;19;20205;-79
2022/06/30 15:20:38;;;;;;;6.20;3.00;;;;;;;;;;7385307;19;20159;-79
2022/06/30 15:25:47;;;;;;;4.75;3.10;;;;;;;;;;7386840;19;20151;-79
2022/06/30 15:28:12;;;;;;;5.80;2.88;;;;;;;;;;7384744;19;20124;-79
2022/06/30 15:30:38;;;;;;;5.22;3.03;;;;;;;;;;7385165;19;20247;-79
2022/06/30 15:33:03;;;;;;;3.60;2.80;;;;;;;;;;7385320;19;20394;-79
2022/06/30 15:35:28;;;;;;;3.08;2.88;;;;;;;;;;7380542;19;20137;-79
2022/06/30 15:37:54;;;;;;;2.92;2.65;;;;;;;;;;7377931;19;20155;-79
2022/06/30 15:40:19;;;;;;;3.90;2.90;;;;;;;;;;7382732;19;20184;-79
2022/06/30 15:42:46;;;;;;;4.72;2.70;;;;;;;;;;7381887;19;20552;-80
2022/06/30 15:45:12;;;;;;;2.97;2.47;;;;;;;;;;7382602;19;20719;-79
2022/06/30 15:47:38;;;;;;;4.07;3.20;;;;;;;;;;7385087;19;20141;-79
2022/06/30 15:50:04;;;;;;;4.03;2.88;;;;;;;;;;7378350;19;20145;-80
2022/06/30 15:52:29;;;;;;;2.92;2.72;;;;;;;;;;7377211;19;20164;-80
2022/06/30 15:54:54;;;;;;;4.47;3.03;;;;;;;;;;7380202;19;20145;-79
2022/06/30 15:57:21;;;;;;;4.00;3.35;;;;;;;;;;7374035;19;20133;-79
2022/06/30 15:59:46;;;;;;;6.70;3.25;;;;;;;;;;7372472;19;20140;-79
2022/06/30 16:02:11;;;;;;;3.58;3.25;;;;;;;;;;7375171;19;20145;-80
2022/06/30 16:04:37;;;;;;;5.68;3.20;;;;;;;;;;7373739;19;20144;-79
2022/06/30 16:07:02;;;;;;;4.45;3.60;;;;;;;;;;7375176;19;20160;-79
2022/06/30 16:09:28;;;;;;;4.93;3.78;;;;;;;;;;7378443;19;20156;-79
2022/06/30 16:11:53;;;;;;;5.00;3.90;;;;;;;;;;7383742;19;20148;-78
2022/06/30 16:14:19;;;;;;;7.47;4.40;;;;;;;;;;7386111;19;20137;-77
2022/06/30 16:16:44;;;;;;;6.35;4.50;;;;;;;;;;7381055;19;20160;-77
2022/06/30 16:19:10;;;;;;;5.75;3.70;;;;;;;;;;7383350;19;20164;-77
2022/06/30 16:21:35;;;;;;;7.38;4.13;;;;;;;;;;7381905;19;20456;-77
2022/06/30 16:24:00;;;;;;;6.40;4.13;;;;;;;;;;7384054;19;20144;-78
2022/06/30 16:26:26;;;;;;;6.75;4.07;;;;;;;;;;7382823;19;20137;-78
2022/06/30 16:28:51;;;;;;;9.45;5.63;;;;;;;;;;7383049;19;20153;-78
2022/06/30 16:31:17;;;;;;;6.20;4.95;;;;;;;;;;7384610;19;20145;-77
2022/06/30 16:33:42;;;;;;;7.45;4.38;;;;;;;;;;7384532;19;20169;-77
2022/06/30 16:36:08;;;;;;;5.88;4.40;;;;;;;;;;7387918;19;20163;-79
2022/06/30 16:38:33;;;;;;;5.85;4.13;;;;;;;;;;7384526;19;20145;-79
2022/06/30 16:40:58;;;;;;;3.97;3.67;;;;;;;;;;7387217;19;20153;-79
2022/06/30 16:43:24;;;;;;;6.88;4.00;;;;;;;;;;7386772;19;20155;-80
2022/06/30 16:45:50;;;;;;;7.25;4.25;;;;;;;;;;7399531;19;20154;-78
2022/06/30 16:48:16;;;;;;;3.88;3.38;;;;;;;;;;7402600;19;20137;-78
2022/06/30 16:50:42;;;;;;;8.45;4.25;;;;;;;;;;7415305;19;20184;-79
2022/06/30 16:53:07;;;;;;;5.93;4.10;;;;;;;;;;7406726;19;20129;-78
2022/06/30 16:55:33;;;;;;;4.22;3.75;;;;;;;;;;7399330;19;20670;-79
2022/06/30 16:57:59;;;;;;;7.15;4.55;;;;;;;;;;7406065;19;20113;-79
2022/06/30 17:00:24;;;;;;;11.82;10.60;;;;;;;;;;7401867;19;20179;-79
2022/06/30 17:02:50;;;;;;;7.53;5.70;;;;;;;;;;7401842;19;20603;-78
2022/06/30 17:05:15;;;;;;;8.95;4.80;;;;;;;;;;7402024;19;20172;-78
2022/06/30 17:07:40;;;;;;;5.80;4.57;;;;;;;;;;7397593;19;20555;-78
2022/06/30 17:10:06;;;;;;;5.82;4.95;;;;;;;;;;7403067;19;20164;-78
2022/06/30 17:12:31;;;;;;;6.20;5.60;;;;;;;;;;7398592;19;20163;-79
2022/06/30 17:14:57;;;;;;;5.90;5.30;;;;;;;;;;7400520;19;20651;-79
2022/06/30 17:17:22;;;;;;;6.40;5.25;;;;;;;;;;7396248;19;20109;-79
2022/06/30 17:19:48;;;;;;;6.43;5.00;;;;;;;;;;7397137;19;20156;-78
2022/06/30 17:22:13;;;;;;;5.80;4.78;;;;;;;;;;7398294;19;20174;-77
2022/06/30 17:24:39;;;;;;;5.93;4.60;;;;;;;;;;7395900;19;20152;-79
2022/06/30 17:27:04;;;;;;;5.82;4.68;;;;;;;;;;7400468;19;20136;-78
2022/06/30 17:29:30;;;;;;;7.32;4.50;;;;;;;;;;7393510;19;20473;-80
2022/06/30 17:31:56;;;;;;;8.00;5.13;;;;;;;;;;7393185;19;20272;-79
2022/06/30 17:34:21;;;;;;;7.05;4.63;;;;;;;;;;7400765;19;20225;-78
2022/06/30 17:36:47;;;;;;;9.50;5.28;;;;;;;;;;7396542;19;20169;-79
2022/06/30 17:39:12;;;;;;;6.47;5.00;;;;;;;;;;7395190;19;20121;-79
2022/06/30 17:41:38;;;;;;;6.55;4.70;;;;;;;;;;7393517;19;20144;-78
